Wednesday, April 16, 2014
16:02 UTC
  |  Log In   |  Register Free
Airport Search:

Lenawee County Airport
(KADG)

Lenawee County Airport Diagram
No Airport Diagram Available

FAA data valid effective April 3, 2014 until May 29, 2014 (unless otherwise noted).

 
 
 
 
 
 
 
 
 
 
 
 
 
 

Current Aviation Weather for Lenawee County Airport (KADG)

The most recent METAR observation for KADG was updated at: 1553 UTC
METAR Summary (Translated METAR)
KADG
161553Z AUTO 18008KT 10SM CLR 02/M09 A3044 RMK AO2 SLP320 T00221094 TSNO
KDUH
(20.4 nm SE from KADG)
161555Z AUTO 00000KT 10SM CLR 03/M11 A3045 RMK AO2
TAF Summary (Translated TAF)
KTOL
(20.7 nm SE from KADG)
161120Z 1612/1712 VRB02KT P6SM SKC FM161500 14008KT P6SM SCT250 FM162000 12011KT P6SM BKN250 FM170200 08008KT P6SM BKN250 FM171000 14005KT P6SM SCT250
  Airport Weather Conditions for KADG

 Current Weather at ADG
34° F
Fair
South winds at 10.4 mph
ADG NOAA Radar

Pressure: 30.44 in
Humidity: 46%
Wind: South at 10.4 MPH (9 KT)
Dew Point: 15.1°F
Visibility: 10.00 mi


Airport Weather Forecast for KADG

Translated METAR and TAF for KADG
Translated METAR for KADG (1602 UTC 16 April 2014)
found at http://aviationweather.gov/adds/metars/
 
METAR text: KADG 161553Z AUTO 18008KT 10SM CLR 02/M09 A3044 RMK AO2 SLP320 T00221094 TSNO
Conditions at: KADG (ADRIAN , MI, US) observed 1553 UTC 16 April 2014
Temperature: 2.2°C (36°F)
Dewpoint: -9.4°C (15°F) [RH = 42%]
Pressure (altimeter): 30.44 inches Hg (1030.9 mb)
[Sea-level pressure: 1032.0 mb]
Winds: from the S (180 degrees) at 9 MPH (8 knots; 4.2 m/s)
Visibility: 10 or more miles (16+ km)
Ceiling: at least 12,000 feet AGL
Clouds: sky clear below 12,000 feet AGL
Weather: automated observation with no human augmentation;
there may or may not be significant weather present at this time
Translated TAF for KADG

There is no translated TAF available for this airport

Find All Airport Services Find A Hotel Find A Rental Car Find A Golf Course Find A Restaurant $100 Hamburger



FBO's on the Field
FBO Company Facility Photos Services Transportation Aviation Fuel Prices: Prices include tax
Catering Weather Repair Courtesy Rental Type 100LL JetA JetA+ MOGAS 8087
 
Lenawee County Airport

This FBO has not yet been rated
FS:Avfuel
Last Updated: Apr-11
Login to update fuel prices
SS:
Contact Lenawee County AirportMore FBO Information
 
Add another FBO Facility Photos Catering Weather Repair Courtesy Rental Type 100LL JetA JetA+ MOGAS 8087
Services Transportation Aviation Fuel Prices: Prices include tax


GlobalAir.com Airport Resource Center model-print
model-print
model-print
model-print